sensor_id;sensor_type;location;lat;lon;timestamp;pressure;altitude;pressure_sealevel;temperature
15079;BMP180;6932;51.438;5.470;2023-07-02T00:01:59;100372.00;;;23.30
15079;BMP180;6932;51.438;5.470;2023-07-02T00:04:25;100371.00;;;23.30
15079;BMP180;6932;51.438;5.470;2023-07-02T00:06:51;100370.00;;;23.30
15079;BMP180;6932;51.438;5.470;2023-07-02T00:09:17;100356.00;;;23.30
15079;BMP180;6932;51.438;5.470;2023-07-02T00:11:45;100355.00;;;23.30
15079;BMP180;6932;51.438;5.470;2023-07-02T00:14:14;100355.00;;;23.20
15079;BMP180;6932;51.438;5.470;2023-07-02T00:16:45;100367.00;;;23.20
15079;BMP180;6932;51.438;5.470;2023-07-02T00:19:13;100360.00;;;23.20
15079;BMP180;6932;51.438;5.470;2023-07-02T00:21:39;100362.00;;;23.20
15079;BMP180;6932;51.438;5.470;2023-07-02T00:24:07;100356.00;;;23.20
15079;BMP180;6932;51.438;5.470;2023-07-02T00:26:35;100353.00;;;23.20
15079;BMP180;6932;51.438;5.470;2023-07-02T00:29:02;100357.00;;;23.10
15079;BMP180;6932;51.438;5.470;2023-07-02T00:31:29;100365.00;;;23.10
15079;BMP180;6932;51.438;5.470;2023-07-02T00:33:55;100362.00;;;23.10
15079;BMP180;6932;51.438;5.470;2023-07-02T00:36:21;100359.00;;;23.10
15079;BMP180;6932;51.438;5.470;2023-07-02T00:38:49;100363.00;;;23.10
15079;BMP180;6932;51.438;5.470;2023-07-02T00:41:15;100360.00;;;23.10
15079;BMP180;6932;51.438;5.470;2023-07-02T00:43:42;100360.00;;;23.10
15079;BMP180;6932;51.438;5.470;2023-07-02T00:46:18;100354.00;;;23.10
15079;BMP180;6932;51.438;5.470;2023-07-02T00:48:49;100358.00;;;23.10
15079;BMP180;6932;51.438;5.470;2023-07-02T00:51:18;100353.00;;;23.00
15079;BMP180;6932;51.438;5.470;2023-07-02T00:53:45;100363.00;;;23.10
15079;BMP180;6932;51.438;5.470;2023-07-02T00:56:12;100368.00;;;23.00
15079;BMP180;6932;51.438;5.470;2023-07-02T00:58:43;100357.00;;;23.00
15079;BMP180;6932;51.438;5.470;2023-07-02T01:01:22;100368.00;;;23.00
15079;BMP180;6932;51.438;5.470;2023-07-02T01:04:00;100366.00;;;23.00
15079;BMP180;6932;51.438;5.470;2023-07-02T01:06:37;100378.00;;;23.00
15079;BMP180;6932;51.438;5.470;2023-07-02T01:09:07;100373.00;;;23.00
15079;BMP180;6932;51.438;5.470;2023-07-02T01:11:38;100372.00;;;23.00
15079;BMP180;6932;51.438;5.470;2023-07-02T01:14:17;100372.00;;;23.00
15079;BMP180;6932;51.438;5.470;2023-07-02T01:16:46;100381.00;;;22.90
15079;BMP180;6932;51.438;5.470;2023-07-02T01:19:21;100370.00;;;22.90
15079;BMP180;6932;51.438;5.470;2023-07-02T01:21:48;100382.00;;;22.90
15079;BMP180;6932;51.438;5.470;2023-07-02T01:24:16;100376.00;;;22.90
15079;BMP180;6932;51.438;5.470;2023-07-02T01:26:42;100384.00;;;22.90
15079;BMP180;6932;51.438;5.470;2023-07-02T01:29:21;100385.00;;;22.90
15079;BMP180;6932;51.438;5.470;2023-07-02T01:31:47;100380.00;;;22.90
15079;BMP180;6932;51.438;5.470;2023-07-02T01:34:14;100390.00;;;22.90
15079;BMP180;6932;51.438;5.470;2023-07-02T01:36:40;100386.00;;;22.80
15079;BMP180;6932;51.438;5.470;2023-07-02T01:39:06;100392.00;;;22.80
15079;BMP180;6932;51.438;5.470;2023-07-02T01:41:54;100389.00;;;22.80
15079;BMP180;6932;51.438;5.470;2023-07-02T01:44:21;100395.00;;;22.80
15079;BMP180;6932;51.438;5.470;2023-07-02T01:46:48;100400.00;;;22.80
15079;BMP180;6932;51.438;5.470;2023-07-02T01:49:18;100398.00;;;22.80
15079;BMP180;6932;51.438;5.470;2023-07-02T01:52:02;100402.00;;;22.80
15079;BMP180;6932;51.438;5.470;2023-07-02T01:54:29;100408.00;;;22.80
15079;BMP180;6932;51.438;5.470;2023-07-02T01:56:56;100401.00;;;22.70
15079;BMP180;6932;51.438;5.470;2023-07-02T01:59:22;100403.00;;;22.70
15079;BMP180;6932;51.438;5.470;2023-07-02T02:01:48;100401.00;;;22.70
15079;BMP180;6932;51.438;5.470;2023-07-02T02:04:14;100396.00;;;22.70
15079;BMP180;6932;51.438;5.470;2023-07-02T02:06:41;100407.00;;;22.70
15079;BMP180;6932;51.438;5.470;2023-07-02T02:09:08;100404.00;;;22.70
15079;BMP180;6932;51.438;5.470;2023-07-02T02:11:40;100402.00;;;22.70
15079;BMP180;6932;51.438;5.470;2023-07-02T02:14:06;100405.00;;;22.70
15079;BMP180;6932;51.438;5.470;2023-07-02T02:16:32;100406.00;;;22.70
15079;BMP180;6932;51.438;5.470;2023-07-02T02:19:00;100409.00;;;22.70
15079;BMP180;6932;51.438;5.470;2023-07-02T02:21:26;100413.00;;;22.70
15079;BMP180;6932;51.438;5.470;2023-07-02T02:23:52;100408.00;;;22.60
15079;BMP180;6932;51.438;5.470;2023-07-02T02:26:18;100405.00;;;22.60
15079;BMP180;6932;51.438;5.470;2023-07-02T02:28:48;100408.00;;;22.60
15079;BMP180;6932;51.438;5.470;2023-07-02T02:31:15;100412.00;;;22.60
15079;BMP180;6932;51.438;5.470;2023-07-02T02:33:41;100408.00;;;22.60
15079;BMP180;6932;51.438;5.470;2023-07-02T02:36:07;100410.00;;;22.60
15079;BMP180;6932;51.438;5.470;2023-07-02T02:38:32;100406.00;;;22.60
15079;BMP180;6932;51.438;5.470;2023-07-02T02:41:00;100409.00;;;22.60
15079;BMP180;6932;51.438;5.470;2023-07-02T02:43:27;100419.00;;;22.50
15079;BMP180;6932;51.438;5.470;2023-07-02T02:45:52;100420.00;;;22.50
15079;BMP180;6932;51.438;5.470;2023-07-02T02:48:18;100421.00;;;22.50
15079;BMP180;6932;51.438;5.470;2023-07-02T02:50:45;100425.00;;;22.50
15079;BMP180;6932;51.438;5.470;2023-07-02T02:53:11;100424.00;;;22.50
15079;BMP180;6932;51.438;5.470;2023-07-02T02:55:37;100425.00;;;22.40
15079;BMP180;6932;51.438;5.470;2023-07-02T02:58:03;100433.00;;;22.40
15079;BMP180;6932;51.438;5.470;2023-07-02T03:00:29;100426.00;;;22.40
15079;BMP180;6932;51.438;5.470;2023-07-02T03:02:55;100432.00;;;22.40
15079;BMP180;6932;51.438;5.470;2023-07-02T03:05:22;100437.00;;;22.40
15079;BMP180;6932;51.438;5.470;2023-07-02T03:07:49;100443.00;;;22.40
15079;BMP180;6932;51.438;5.470;2023-07-02T03:10:15;100452.00;;;22.40
15079;BMP180;6932;51.438;5.470;2023-07-02T03:12:41;100448.00;;;22.40
15079;BMP180;6932;51.438;5.470;2023-07-02T03:15:07;100451.00;;;22.30
15079;BMP180;6932;51.438;5.470;2023-07-02T03:17:33;100451.00;;;22.30
15079;BMP180;6932;51.438;5.470;2023-07-02T03:19:59;100456.00;;;22.30
15079;BMP180;6932;51.438;5.470;2023-07-02T03:22:25;100456.00;;;22.30
15079;BMP180;6932;51.438;5.470;2023-07-02T03:24:51;100456.00;;;22.30
15079;BMP180;6932;51.438;5.470;2023-07-02T03:27:16;100457.00;;;22.20
15079;BMP180;6932;51.438;5.470;2023-07-02T03:29:42;100463.00;;;22.20
15079;BMP180;6932;51.438;5.470;2023-07-02T03:32:08;100473.00;;;22.20
15079;BMP180;6932;51.438;5.470;2023-07-02T03:34:34;100468.00;;;22.20
15079;BMP180;6932;51.438;5.470;2023-07-02T03:36:59;100472.00;;;22.20
15079;BMP180;6932;51.438;5.470;2023-07-02T03:39:25;100468.00;;;22.10
15079;BMP180;6932;51.438;5.470;2023-07-02T03:41:51;100466.00;;;22.10
15079;BMP180;6932;51.438;5.470;2023-07-02T03:44:16;100472.00;;;22.10
15079;BMP180;6932;51.438;5.470;2023-07-02T03:46:43;100475.00;;;22.10
15079;BMP180;6932;51.438;5.470;2023-07-02T03:49:09;100477.00;;;22.10
15079;BMP180;6932;51.438;5.470;2023-07-02T03:51:34;100470.00;;;22.10
15079;BMP180;6932;51.438;5.470;2023-07-02T03:54:00;100478.00;;;22.10
15079;BMP180;6932;51.438;5.470;2023-07-02T03:56:26;100485.00;;;22.10
15079;BMP180;6932;51.438;5.470;2023-07-02T03:58:52;100492.00;;;22.10
15079;BMP180;6932;51.438;5.470;2023-07-02T04:01:18;100491.00;;;22.00
15079;BMP180;6932;51.438;5.470;2023-07-02T04:03:52;100492.00;;;22.00
15079;BMP180;6932;51.438;5.470;2023-07-02T04:06:18;100489.00;;;22.00
15079;BMP180;6932;51.438;5.470;2023-07-02T04:08:44;100486.00;;;22.00
15079;BMP180;6932;51.438;5.470;2023-07-02T04:11:11;100487.00;;;22.00
15079;BMP180;6932;51.438;5.470;2023-07-02T04:13:38;100491.00;;;22.00
15079;BMP180;6932;51.438;5.470;2023-07-02T04:16:04;100482.00;;;22.00
15079;BMP180;6932;51.438;5.470;2023-07-02T04:18:30;100490.00;;;22.00
15079;BMP180;6932;51.438;5.470;2023-07-02T04:20:57;100492.00;;;22.10
15079;BMP180;6932;51.438;5.470;2023-07-02T04:23:24;100497.00;;;22.10
15079;BMP180;6932;51.438;5.470;2023-07-02T04:25:50;100493.00;;;22.10
15079;BMP180;6932;51.438;5.470;2023-07-02T04:28:16;100495.00;;;22.10
15079;BMP180;6932;51.438;5.470;2023-07-02T04:30:42;100504.00;;;22.10
15079;BMP180;6932;51.438;5.470;2023-07-02T04:33:08;100504.00;;;22.20
15079;BMP180;6932;51.438;5.470;2023-07-02T04:35:34;100506.00;;;22.20
15079;BMP180;6932;51.438;5.470;2023-07-02T04:38:03;100500.00;;;22.20
15079;BMP180;6932;51.438;5.470;2023-07-02T04:40:29;100501.00;;;22.20
15079;BMP180;6932;51.438;5.470;2023-07-02T04:42:54;100512.00;;;22.20
15079;BMP180;6932;51.438;5.470;2023-07-02T04:45:25;100501.00;;;22.20
15079;BMP180;6932;51.438;5.470;2023-07-02T04:47:51;100499.00;;;22.20
15079;BMP180;6932;51.438;5.470;2023-07-02T04:50:18;100505.00;;;22.30
15079;BMP180;6932;51.438;5.470;2023-07-02T04:52:44;100512.00;;;22.30
15079;BMP180;6932;51.438;5.470;2023-07-02T04:55:10;100513.00;;;22.30
15079;BMP180;6932;51.438;5.470;2023-07-02T04:57:36;100514.00;;;22.30
15079;BMP180;6932;51.438;5.470;2023-07-02T05:00:03;100511.00;;;22.30
15079;BMP180;6932;51.438;5.470;2023-07-02T05:02:31;100510.00;;;22.30
15079;BMP180;6932;51.438;5.470;2023-07-02T05:04:57;100514.00;;;22.30
15079;BMP180;6932;51.438;5.470;2023-07-02T05:07:23;100519.00;;;22.30
15079;BMP180;6932;51.438;5.470;2023-07-02T05:09:48;100520.00;;;22.40
15079;BMP180;6932;51.438;5.470;2023-07-02T05:12:17;100529.00;;;22.40
15079;BMP180;6932;51.438;5.470;2023-07-02T05:14:43;100529.00;;;22.40
15079;BMP180;6932;51.438;5.470;2023-07-02T05:17:09;100523.00;;;22.40
15079;BMP180;6932;51.438;5.470;2023-07-02T05:19:34;100535.00;;;22.40
15079;BMP180;6932;51.438;5.470;2023-07-02T05:22:00;100536.00;;;22.50
15079;BMP180;6932;51.438;5.470;2023-07-02T05:24:26;100549.00;;;22.50
15079;BMP180;6932;51.438;5.470;2023-07-02T05:26:52;100546.00;;;22.50
15079;BMP180;6932;51.438;5.470;2023-07-02T05:29:18;100538.00;;;22.50
15079;BMP180;6932;51.438;5.470;2023-07-02T05:31:44;100548.00;;;22.50
15079;BMP180;6932;51.438;5.470;2023-07-02T05:34:10;100546.00;;;22.60
15079;BMP180;6932;51.438;5.470;2023-07-02T05:36:36;100561.00;;;22.60
15079;BMP180;6932;51.438;5.470;2023-07-02T05:39:01;100557.00;;;22.70
15079;BMP180;6932;51.438;5.470;2023-07-02T05:41:27;100553.00;;;22.80
15079;BMP180;6932;51.438;5.470;2023-07-02T05:43:57;100551.00;;;22.90
15079;BMP180;6932;51.438;5.470;2023-07-02T05:46:24;100559.00;;;23.00
15079;BMP180;6932;51.438;5.470;2023-07-02T05:48:49;100555.00;;;23.00
15079;BMP180;6932;51.438;5.470;2023-07-02T05:51:24;100552.00;;;23.10
15079;BMP180;6932;51.438;5.470;2023-07-02T05:53:51;100566.00;;;23.10
15079;BMP180;6932;51.438;5.470;2023-07-02T05:56:18;100568.00;;;23.10
15079;BMP180;6932;51.438;5.470;2023-07-02T05:58:45;100572.00;;;23.20
15079;BMP180;6932;51.438;5.470;2023-07-02T06:01:11;100577.00;;;23.10
15079;BMP180;6932;51.438;5.470;2023-07-02T06:03:37;100568.00;;;23.20
15079;BMP180;6932;51.438;5.470;2023-07-02T06:06:03;100575.00;;;23.20
15079;BMP180;6932;51.438;5.470;2023-07-02T06:08:29;100582.00;;;23.20
15079;BMP180;6932;51.438;5.470;2023-07-02T06:10:54;100583.00;;;23.20
15079;BMP180;6932;51.438;5.470;2023-07-02T06:13:20;100581.00;;;23.30
15079;BMP180;6932;51.438;5.470;2023-07-02T06:15:46;100591.00;;;23.30
15079;BMP180;6932;51.438;5.470;2023-07-02T06:18:13;100586.00;;;23.40
15079;BMP180;6932;51.438;5.470;2023-07-02T06:20:39;100586.00;;;23.50
15079;BMP180;6932;51.438;5.470;2023-07-02T06:23:04;100576.00;;;23.60
15079;BMP180;6932;51.438;5.470;2023-07-02T06:25:30;100589.00;;;23.70
15079;BMP180;6932;51.438;5.470;2023-07-02T06:27:56;100596.00;;;23.70
15079;BMP180;6932;51.438;5.470;2023-07-02T06:30:24;100594.00;;;23.80
15079;BMP180;6932;51.438;5.470;2023-07-02T06:32:50;100602.00;;;23.90
15079;BMP180;6932;51.438;5.470;2023-07-02T06:35:16;100591.00;;;23.90
15079;BMP180;6932;51.438;5.470;2023-07-02T06:37:42;100593.00;;;23.90
15079;BMP180;6932;51.438;5.470;2023-07-02T06:40:08;100603.00;;;23.90
15079;BMP180;6932;51.438;5.470;2023-07-02T06:42:34;100604.00;;;23.90
15079;BMP180;6932;51.438;5.470;2023-07-02T06:45:02;100597.00;;;23.90
15079;BMP180;6932;51.438;5.470;2023-07-02T06:47:28;100608.00;;;23.90
15079;BMP180;6932;51.438;5.470;2023-07-02T06:49:54;100603.00;;;23.90
15079;BMP180;6932;51.438;5.470;2023-07-02T06:52:20;100607.00;;;23.90
15079;BMP180;6932;51.438;5.470;2023-07-02T06:54:46;100618.00;;;23.90
15079;BMP180;6932;51.438;5.470;2023-07-02T06:57:13;100618.00;;;23.90
15079;BMP180;6932;51.438;5.470;2023-07-02T06:59:39;100619.00;;;24.00
15079;BMP180;6932;51.438;5.470;2023-07-02T07:02:05;100626.00;;;24.00
15079;BMP180;6932;51.438;5.470;2023-07-02T07:04:31;100630.00;;;24.10
15079;BMP180;6932;51.438;5.470;2023-07-02T07:06:57;100636.00;;;24.10
15079;BMP180;6932;51.438;5.470;2023-07-02T07:09:23;100635.00;;;24.10
15079;BMP180;6932;51.438;5.470;2023-07-02T07:11:48;100637.00;;;24.20
15079;BMP180;6932;51.438;5.470;2023-07-02T07:14:15;100637.00;;;24.30
15079;BMP180;6932;51.438;5.470;2023-07-02T07:16:40;100639.00;;;24.30
15079;BMP180;6932;51.438;5.470;2023-07-02T07:19:06;100650.00;;;24.40
15079;BMP180;6932;51.438;5.470;2023-07-02T07:21:34;100649.00;;;24.40
15079;BMP180;6932;51.438;5.470;2023-07-02T07:24:00;100638.00;;;24.50
15079;BMP180;6932;51.438;5.470;2023-07-02T07:26:26;100647.00;;;24.50
15079;BMP180;6932;51.438;5.470;2023-07-02T07:28:52;100647.00;;;24.60
15079;BMP180;6932;51.438;5.470;2023-07-02T07:31:20;100662.00;;;24.60
15079;BMP180;6932;51.438;5.470;2023-07-02T07:33:45;100664.00;;;24.60
15079;BMP180;6932;51.438;5.470;2023-07-02T07:36:11;100663.00;;;24.70
15079;BMP180;6932;51.438;5.470;2023-07-02T07:38:37;100671.00;;;24.70
15079;BMP180;6932;51.438;5.470;2023-07-02T07:41:03;100674.00;;;24.70
15079;BMP180;6932;51.438;5.470;2023-07-02T07:43:28;100673.00;;;24.70
15079;BMP180;6932;51.438;5.470;2023-07-02T07:45:54;100673.00;;;24.70
15079;BMP180;6932;51.438;5.470;2023-07-02T07:48:20;100682.00;;;24.70
15079;BMP180;6932;51.438;5.470;2023-07-02T07:50:47;100683.00;;;24.70
15079;BMP180;6932;51.438;5.470;2023-07-02T07:53:13;100676.00;;;24.70
15079;BMP180;6932;51.438;5.470;2023-07-02T07:55:38;100672.00;;;24.60
15079;BMP180;6932;51.438;5.470;2023-07-02T07:58:04;100668.00;;;24.60
15079;BMP180;6932;51.438;5.470;2023-07-02T08:00:30;100657.00;;;24.70
15079;BMP180;6932;51.438;5.470;2023-07-02T08:02:55;100669.00;;;24.70
15079;BMP180;6932;51.438;5.470;2023-07-02T08:05:21;100672.00;;;24.80
15079;BMP180;6932;51.438;5.470;2023-07-02T08:07:48;100663.00;;;24.80
15079;BMP180;6932;51.438;5.470;2023-07-02T08:10:14;100675.00;;;24.90
15079;BMP180;6932;51.438;5.470;2023-07-02T08:12:40;100667.00;;;24.90
15079;BMP180;6932;51.438;5.470;2023-07-02T08:15:06;100671.00;;;25.00
15079;BMP180;6932;51.438;5.470;2023-07-02T08:17:32;100689.00;;;25.00
15079;BMP180;6932;51.438;5.470;2023-07-02T08:19:58;100688.00;;;25.10
15079;BMP180;6932;51.438;5.470;2023-07-02T08:22:24;100690.00;;;25.10
15079;BMP180;6932;51.438;5.470;2023-07-02T08:24:49;100692.00;;;25.10
15079;BMP180;6932;51.438;5.470;2023-07-02T08:27:18;100695.00;;;25.20
15079;BMP180;6932;51.438;5.470;2023-07-02T08:29:49;100694.00;;;25.20
15079;BMP180;6932;51.438;5.470;2023-07-02T08:32:15;100696.00;;;25.30
15079;BMP180;6932;51.438;5.470;2023-07-02T08:34:41;100709.00;;;25.30
15079;BMP180;6932;51.438;5.470;2023-07-02T08:37:07;100709.00;;;25.40
15079;BMP180;6932;51.438;5.470;2023-07-02T08:39:33;100711.00;;;25.40
15079;BMP180;6932;51.438;5.470;2023-07-02T08:42:01;100711.00;;;25.40
15079;BMP180;6932;51.438;5.470;2023-07-02T08:44:27;100712.00;;;25.40
15079;BMP180;6932;51.438;5.470;2023-07-02T08:46:53;100712.00;;;25.40
15079;BMP180;6932;51.438;5.470;2023-07-02T08:49:22;100714.00;;;25.30
15079;BMP180;6932;51.438;5.470;2023-07-02T08:51:48;100715.00;;;25.30
15079;BMP180;6932;51.438;5.470;2023-07-02T08:54:14;100714.00;;;25.30
15079;BMP180;6932;51.438;5.470;2023-07-02T08:56:41;100716.00;;;25.30
15079;BMP180;6932;51.438;5.470;2023-07-02T08:59:08;100717.00;;;25.30
15079;BMP180;6932;51.438;5.470;2023-07-02T09:01:48;100709.00;;;25.30
15079;BMP180;6932;51.438;5.470;2023-07-02T09:06:46;100715.00;;;25.30
15079;BMP180;6932;51.438;5.470;2023-07-02T09:09:11;100718.00;;;25.30
15079;BMP180;6932;51.438;5.470;2023-07-02T09:11:47;100712.00;;;25.40
15079;BMP180;6932;51.438;5.470;2023-07-02T09:14:30;100721.00;;;25.40
15079;BMP180;6932;51.438;5.470;2023-07-02T09:17:05;100725.00;;;25.40
15079;BMP180;6932;51.438;5.470;2023-07-02T09:19:32;100724.00;;;25.40
15079;BMP180;6932;51.438;5.470;2023-07-02T09:21:59;100713.00;;;25.50
15079;BMP180;6932;51.438;5.470;2023-07-02T09:24:28;100713.00;;;25.50
15079;BMP180;6932;51.438;5.470;2023-07-02T09:27:00;100716.00;;;25.50
15079;BMP180;6932;51.438;5.470;2023-07-02T09:29:29;100727.00;;;25.50
15079;BMP180;6932;51.438;5.470;2023-07-02T09:32:01;100722.00;;;25.50
15079;BMP180;6932;51.438;5.470;2023-07-02T09:34:31;100718.00;;;25.50
15079;BMP180;6932;51.438;5.470;2023-07-02T09:36:58;100710.00;;;25.40
15079;BMP180;6932;51.438;5.470;2023-07-02T09:39:29;100703.00;;;25.40
15079;BMP180;6932;51.438;5.470;2023-07-02T09:41:58;100709.00;;;25.40
15079;BMP180;6932;51.438;5.470;2023-07-02T09:44:29;100709.00;;;25.50
15079;BMP180;6932;51.438;5.470;2023-07-02T09:47:06;100716.00;;;25.50
15079;BMP180;6932;51.438;5.470;2023-07-02T09:49:54;100701.00;;;25.60
15079;BMP180;6932;51.438;5.470;2023-07-02T09:52:21;100717.00;;;25.60
15079;BMP180;6932;51.438;5.470;2023-07-02T09:54:47;100710.00;;;25.60
15079;BMP180;6932;51.438;5.470;2023-07-02T09:57:13;100724.00;;;25.60
15079;BMP180;6932;51.438;5.470;2023-07-02T09:59:40;100724.00;;;25.60
15079;BMP180;6932;51.438;5.470;2023-07-02T10:02:08;100732.00;;;25.60
15079;BMP180;6932;51.438;5.470;2023-07-02T10:04:43;100729.00;;;25.60
15079;BMP180;6932;51.438;5.470;2023-07-02T10:07:10;100745.00;;;25.50
15079;BMP180;6932;51.438;5.470;2023-07-02T10:09:45;100742.00;;;25.50
15079;BMP180;6932;51.438;5.470;2023-07-02T10:12:30;100746.00;;;25.50
15079;BMP180;6932;51.438;5.470;2023-07-02T10:14:59;100751.00;;;25.40
15079;BMP180;6932;51.438;5.470;2023-07-02T10:17:30;100749.00;;;25.40
15079;BMP180;6932;51.438;5.470;2023-07-02T10:20:02;100748.00;;;25.50
15079;BMP180;6932;51.438;5.470;2023-07-02T10:22:43;100745.00;;;25.50
15079;BMP180;6932;51.438;5.470;2023-07-02T10:25:09;100749.00;;;25.60
15079;BMP180;6932;51.438;5.470;2023-07-02T10:27:40;100748.00;;;25.60
15079;BMP180;6932;51.438;5.470;2023-07-02T10:30:07;100737.00;;;25.70
15079;BMP180;6932;51.438;5.470;2023-07-02T10:32:35;100735.00;;;25.70
15079;BMP180;6932;51.438;5.470;2023-07-02T10:35:13;100753.00;;;25.80
15079;BMP180;6932;51.438;5.470;2023-07-02T10:37:39;100741.00;;;25.80
15079;BMP180;6932;51.438;5.470;2023-07-02T10:40:07;100754.00;;;25.90
15079;BMP180;6932;51.438;5.470;2023-07-02T10:42:33;100761.00;;;25.90
15079;BMP180;6932;51.438;5.470;2023-07-02T10:45:02;100769.00;;;25.80
15079;BMP180;6932;51.438;5.470;2023-07-02T10:47:28;100767.00;;;25.80
15079;BMP180;6932;51.438;5.470;2023-07-02T10:49:54;100772.00;;;25.80
15079;BMP180;6932;51.438;5.470;2023-07-02T10:52:20;100769.00;;;25.80
15079;BMP180;6932;51.438;5.470;2023-07-02T10:54:47;100775.00;;;25.80
15079;BMP180;6932;51.438;5.470;2023-07-02T10:57:19;100763.00;;;25.80
15079;BMP180;6932;51.438;5.470;2023-07-02T10:59:48;100753.00;;;25.80
15079;BMP180;6932;51.438;5.470;2023-07-02T11:02:15;100763.00;;;25.80
15079;BMP180;6932;51.438;5.470;2023-07-02T11:04:41;100750.00;;;25.90
15079;BMP180;6932;51.438;5.470;2023-07-02T11:07:07;100751.00;;;26.00
15079;BMP180;6932;51.438;5.470;2023-07-02T11:09:33;100755.00;;;26.20
15079;BMP180;6932;51.438;5.470;2023-07-02T11:12:00;100749.00;;;26.30
15079;BMP180;6932;51.438;5.470;2023-07-02T11:14:34;100757.00;;;26.30
15079;BMP180;6932;51.438;5.470;2023-07-02T11:17:05;100756.00;;;26.40
15079;BMP180;6932;51.438;5.470;2023-07-02T11:19:35;100750.00;;;26.40
15079;BMP180;6932;51.438;5.470;2023-07-02T11:22:01;100771.00;;;26.40
15079;BMP180;6932;51.438;5.470;2023-07-02T11:24:34;100756.00;;;26.40
15079;BMP180;6932;51.438;5.470;2023-07-02T11:27:04;100756.00;;;26.40
15079;BMP180;6932;51.438;5.470;2023-07-02T11:29:36;100763.00;;;26.40
15079;BMP180;6932;51.438;5.470;2023-07-02T11:32:09;100758.00;;;26.40
15079;BMP180;6932;51.438;5.470;2023-07-02T11:34:36;100759.00;;;26.50
15079;BMP180;6932;51.438;5.470;2023-07-02T11:37:03;100743.00;;;26.50
15079;BMP180;6932;51.438;5.470;2023-07-02T11:39:30;100750.00;;;26.60
15079;BMP180;6932;51.438;5.470;2023-07-02T11:41:56;100755.00;;;26.60
15079;BMP180;6932;51.438;5.470;2023-07-02T11:44:22;100760.00;;;26.60
15079;BMP180;6932;51.438;5.470;2023-07-02T11:46:48;100745.00;;;26.60
15079;BMP180;6932;51.438;5.470;2023-07-02T11:49:15;100757.00;;;26.60
15079;BMP180;6932;51.438;5.470;2023-07-02T11:51:42;100754.00;;;26.50
15079;BMP180;6932;51.438;5.470;2023-07-02T11:54:14;100758.00;;;26.50
15079;BMP180;6932;51.438;5.470;2023-07-02T11:56:41;100755.00;;;26.50
15079;BMP180;6932;51.438;5.470;2023-07-02T11:59:08;100767.00;;;26.50
15079;BMP180;6932;51.438;5.470;2023-07-02T12:01:34;100767.00;;;26.50
15079;BMP180;6932;51.438;5.470;2023-07-02T12:04:00;100766.00;;;26.50
15079;BMP180;6932;51.438;5.470;2023-07-02T12:06:26;100760.00;;;26.60
15079;BMP180;6932;51.438;5.470;2023-07-02T12:08:51;100767.00;;;26.60
15079;BMP180;6932;51.438;5.470;2023-07-02T12:11:17;100762.00;;;26.70
15079;BMP180;6932;51.438;5.470;2023-07-02T12:13:43;100750.00;;;26.70
15079;BMP180;6932;51.438;5.470;2023-07-02T12:16:09;100753.00;;;26.70
15079;BMP180;6932;51.438;5.470;2023-07-02T12:18:35;100754.00;;;26.70
15079;BMP180;6932;51.438;5.470;2023-07-02T12:21:00;100763.00;;;26.80
15079;BMP180;6932;51.438;5.470;2023-07-02T12:23:26;100757.00;;;26.80
15079;BMP180;6932;51.438;5.470;2023-07-02T12:25:52;100758.00;;;26.80
15079;BMP180;6932;51.438;5.470;2023-07-02T12:28:17;100757.00;;;26.90
15079;BMP180;6932;51.438;5.470;2023-07-02T12:30:43;100758.00;;;26.90
15079;BMP180;6932;51.438;5.470;2023-07-02T12:33:10;100745.00;;;26.90
15079;BMP180;6932;51.438;5.470;2023-07-02T12:35:35;100746.00;;;26.90
15079;BMP180;6932;51.438;5.470;2023-07-02T12:38:01;100752.00;;;26.90
15079;BMP180;6932;51.438;5.470;2023-07-02T12:40:29;100742.00;;;27.00
15079;BMP180;6932;51.438;5.470;2023-07-02T12:42:55;100757.00;;;27.00
15079;BMP180;6932;51.438;5.470;2023-07-02T12:45:22;100760.00;;;27.10
15079;BMP180;6932;51.438;5.470;2023-07-02T12:47:48;100762.00;;;27.10
15079;BMP180;6932;51.438;5.470;2023-07-02T12:50:13;100757.00;;;27.10
15079;BMP180;6932;51.438;5.470;2023-07-02T12:52:39;100758.00;;;27.00
15079;BMP180;6932;51.438;5.470;2023-07-02T12:55:05;100748.00;;;27.00
15079;BMP180;6932;51.438;5.470;2023-07-02T12:57:31;100762.00;;;27.00
15079;BMP180;6932;51.438;5.470;2023-07-02T12:59:57;100762.00;;;27.00
15079;BMP180;6932;51.438;5.470;2023-07-02T13:02:24;100753.00;;;27.00
15079;BMP180;6932;51.438;5.470;2023-07-02T13:04:50;100757.00;;;27.00
15079;BMP180;6932;51.438;5.470;2023-07-02T13:07:17;100761.00;;;27.00
15079;BMP180;6932;51.438;5.470;2023-07-02T13:09:43;100761.00;;;27.00
15079;BMP180;6932;51.438;5.470;2023-07-02T13:12:10;100760.00;;;27.00
15079;BMP180;6932;51.438;5.470;2023-07-02T13:14:35;100767.00;;;27.00
15079;BMP180;6932;51.438;5.470;2023-07-02T13:17:02;100771.00;;;27.10
15079;BMP180;6932;51.438;5.470;2023-07-02T13:19:30;100770.00;;;27.10
15079;BMP180;6932;51.438;5.470;2023-07-02T13:21:56;100767.00;;;27.20
15079;BMP180;6932;51.438;5.470;2023-07-02T13:24:22;100780.00;;;27.20
15079;BMP180;6932;51.438;5.470;2023-07-02T13:26:48;100780.00;;;27.20
15079;BMP180;6932;51.438;5.470;2023-07-02T13:29:14;100777.00;;;27.20
15079;BMP180;6932;51.438;5.470;2023-07-02T13:31:40;100781.00;;;27.20
15079;BMP180;6932;51.438;5.470;2023-07-02T13:34:06;100786.00;;;27.20
15079;BMP180;6932;51.438;5.470;2023-07-02T13:36:31;100775.00;;;27.20
15079;BMP180;6932;51.438;5.470;2023-07-02T13:38:57;100765.00;;;27.20
15079;BMP180;6932;51.438;5.470;2023-07-02T13:41:23;100774.00;;;27.20
15079;BMP180;6932;51.438;5.470;2023-07-02T13:43:49;100761.00;;;27.20
15079;BMP180;6932;51.438;5.470;2023-07-02T13:46:15;100774.00;;;27.20
15079;BMP180;6932;51.438;5.470;2023-07-02T13:48:41;100770.00;;;27.30
15079;BMP180;6932;51.438;5.470;2023-07-02T13:51:06;100774.00;;;27.30
15079;BMP180;6932;51.438;5.470;2023-07-02T13:53:34;100774.00;;;27.30
15079;BMP180;6932;51.438;5.470;2023-07-02T13:56:00;100778.00;;;27.30
15079;BMP180;6932;51.438;5.470;2023-07-02T13:58:25;100771.00;;;27.30
15079;BMP180;6932;51.438;5.470;2023-07-02T14:00:51;100774.00;;;27.30
15079;BMP180;6932;51.438;5.470;2023-07-02T14:03:17;100767.00;;;27.30
15079;BMP180;6932;51.438;5.470;2023-07-02T14:05:43;100770.00;;;27.30
15079;BMP180;6932;51.438;5.470;2023-07-02T14:08:09;100783.00;;;27.30
15079;BMP180;6932;51.438;5.470;2023-07-02T14:10:35;100776.00;;;27.30
15079;BMP180;6932;51.438;5.470;2023-07-02T14:13:01;100782.00;;;27.20